createdAt,value
2023-02-17T00:01:13.342Z,7.30
2023-02-17T00:03:41.137Z,7.30
2023-02-17T00:06:09.829Z,7.30
2023-02-17T00:08:38.339Z,7.30
2023-02-17T00:11:06.626Z,7.30
2023-02-17T00:13:34.786Z,7.30
2023-02-17T00:16:08.085Z,7.30
2023-02-17T00:18:37.722Z,7.30
2023-02-17T00:21:14.062Z,7.20
2023-02-17T00:23:41.940Z,7.20
2023-02-17T00:26:10.054Z,7.10
2023-02-17T00:28:37.979Z,7.10
2023-02-17T00:31:09.626Z,7.10
2023-02-17T00:33:39.252Z,7.10
2023-02-17T00:36:09.345Z,7.00
2023-02-17T00:38:37.162Z,7.00
2023-02-17T00:41:05.147Z,7.00
2023-02-17T00:43:32.964Z,7.00
2023-02-17T00:46:00.758Z,7.00
2023-02-17T00:48:28.560Z,7.00
2023-02-17T00:50:57.710Z,7.00
2023-02-17T00:53:25.578Z,7.00
2023-02-17T00:55:53.438Z,7.10
2023-02-17T00:58:21.291Z,7.10
2023-02-17T01:00:49.116Z,7.00
2023-02-17T01:03:16.985Z,7.00
2023-02-17T01:05:45.811Z,7.00
2023-02-17T01:08:15.921Z,7.00
2023-02-17T01:10:46.656Z,7.00
2023-02-17T01:13:16.195Z,6.90
2023-02-17T01:15:46.644Z,6.90
2023-02-17T01:18:14.983Z,6.90
2023-02-17T01:20:43.385Z,7.00
2023-02-17T01:23:12.839Z,7.00
2023-02-17T01:25:44.877Z,7.00
2023-02-17T01:28:16.563Z,7.00
2023-02-17T01:30:44.545Z,7.00
2023-02-17T01:33:12.412Z,6.90
2023-02-17T01:35:40.288Z,6.90
2023-02-17T01:38:08.093Z,6.90
2023-02-17T01:40:35.926Z,6.90
2023-02-17T01:43:05.089Z,6.90
2023-02-17T01:45:39.407Z,6.90
2023-02-17T01:48:10.618Z,6.90
2023-02-17T01:50:42.408Z,6.90
2023-02-17T01:53:12.571Z,6.90
2023-02-17T01:55:42.301Z,6.90
2023-02-17T01:58:15.098Z,6.90
2023-02-17T02:00:43.635Z,6.90
2023-02-17T02:03:14.967Z,6.80
2023-02-17T02:05:43.386Z,6.90
2023-02-17T02:08:12.721Z,6.90
2023-02-17T02:10:40.755Z,6.90
2023-02-17T02:13:09.126Z,7.00
2023-02-17T02:15:45.531Z,7.00
2023-02-17T02:18:25.151Z,7.00
2023-02-17T02:21:38.571Z,7.00
2023-02-17T02:24:24.153Z,7.00
2023-02-17T02:27:35.742Z,7.00
2023-02-17T02:30:34.882Z,7.00
2023-02-17T02:33:11.579Z,6.90
2023-02-17T02:35:49.314Z,6.90
2023-02-17T02:38:32.225Z,6.90
2023-02-17T02:41:10.511Z,7.00
2023-02-17T02:43:39.622Z,7.00
2023-02-17T02:46:07.842Z,6.90
2023-02-17T02:48:38.218Z,7.00
2023-02-17T02:51:21.582Z,6.90
2023-02-17T02:54:11.452Z,6.90
2023-02-17T02:56:50.290Z,6.90
2023-02-17T02:59:33.360Z,6.90
2023-02-17T03:02:08.809Z,7.00
2023-02-17T03:04:45.098Z,6.90
2023-02-17T03:07:21.236Z,7.00
2023-02-17T03:09:50.153Z,7.00
2023-02-17T03:12:19.371Z,7.00
2023-02-17T03:14:50.585Z,7.00
2023-02-17T03:17:18.649Z,7.00
2023-02-17T03:19:48.323Z,7.00
2023-02-17T03:22:21.336Z,7.00
2023-02-17T03:24:49.196Z,7.10
2023-02-17T03:27:16.960Z,7.10
2023-02-17T03:29:44.851Z,7.10
2023-02-17T03:32:13.033Z,7.10
2023-02-17T03:34:40.967Z,7.10
2023-02-17T03:37:10.150Z,7.10
2023-02-17T03:39:37.959Z,7.10
2023-02-17T03:42:05.903Z,7.10
2023-02-17T03:44:34.075Z,7.10
2023-02-17T03:47:01.900Z,7.10
2023-02-17T03:49:29.839Z,7.20
2023-02-17T03:51:58.254Z,7.10
2023-02-17T03:54:28.261Z,7.20
2023-02-17T03:56:56.124Z,7.20
2023-02-17T03:59:24.515Z,7.20
2023-02-17T04:01:52.327Z,7.20
2023-02-17T04:04:20.239Z,7.20
2023-02-17T04:06:48.078Z,7.20
2023-02-17T04:09:18.696Z,7.20
2023-02-17T04:11:47.927Z,7.20
2023-02-17T04:14:15.745Z,7.20
2023-02-17T04:16:43.614Z,7.30
2023-02-17T04:19:11.435Z,7.30
2023-02-17T04:21:39.230Z,7.30
2023-02-17T04:24:07.303Z,7.20
2023-02-17T04:26:35.190Z,7.20
2023-02-17T04:29:06.254Z,7.20
2023-02-17T04:31:34.209Z,7.20
2023-02-17T04:34:02.075Z,7.20
2023-02-17T04:36:30.253Z,7.20
2023-02-17T04:38:58.045Z,7.30
2023-02-17T04:41:25.815Z,7.20
2023-02-17T04:43:53.589Z,7.30
2023-02-17T04:46:22.752Z,7.20
2023-02-17T04:48:50.592Z,7.30
2023-02-17T04:51:18.488Z,7.20
2023-02-17T04:53:46.243Z,7.30
2023-02-17T04:56:14.036Z,7.30
2023-02-17T04:58:41.937Z,7.20
2023-02-17T05:01:09.741Z,7.20
2023-02-17T05:03:38.878Z,7.20
2023-02-17T05:06:07.574Z,7.20
2023-02-17T05:08:35.470Z,7.20
2023-02-17T05:11:03.278Z,7.30
2023-02-17T05:13:33.015Z,7.30
2023-02-17T05:16:00.888Z,7.20
2023-02-17T05:18:28.789Z,7.20
2023-02-17T05:20:57.901Z,7.20
2023-02-17T05:23:25.727Z,7.20
2023-02-17T05:25:53.539Z,7.30
2023-02-17T05:28:21.347Z,7.30
2023-02-17T05:30:49.637Z,7.20
2023-02-17T05:33:17.759Z,7.30
2023-02-17T05:35:45.552Z,7.30
2023-02-17T05:38:14.736Z,7.20
2023-02-17T05:40:42.576Z,7.20
2023-02-17T05:43:10.351Z,7.30
2023-02-17T05:45:38.132Z,7.30
2023-02-17T05:48:05.958Z,7.30
2023-02-17T05:50:33.823Z,7.20
2023-02-17T05:53:01.623Z,7.20
2023-02-17T05:55:30.804Z,7.40
2023-02-17T05:57:58.577Z,7.30
2023-02-17T06:00:26.737Z,7.30
2023-02-17T06:02:54.596Z,7.30
2023-02-17T06:05:22.640Z,7.40
2023-02-17T06:07:50.463Z,7.30
2023-02-17T06:10:18.393Z,7.40
2023-02-17T06:12:47.598Z,7.40
2023-02-17T06:15:15.423Z,7.40
2023-02-17T06:17:43.231Z,7.40
2023-02-17T06:20:12.063Z,7.40
2023-02-17T06:22:39.968Z,7.40
2023-02-17T06:25:08.195Z,7.40
2023-02-17T06:27:36.175Z,7.40
2023-02-17T06:30:06.435Z,7.30
2023-02-17T06:32:34.628Z,7.30
2023-02-17T06:35:02.556Z,7.40
2023-02-17T06:37:30.729Z,7.70
2023-02-17T06:39:58.641Z,7.90
2023-02-17T06:42:26.470Z,7.80
2023-02-17T06:44:54.274Z,7.60
2023-02-17T06:47:23.494Z,7.50
2023-02-17T06:49:51.259Z,7.50
2023-02-17T06:52:19.055Z,7.40
2023-02-17T06:54:47.234Z,7.40
2023-02-17T06:57:15.109Z,7.30
2023-02-17T06:59:42.936Z,7.30
2023-02-17T07:02:12.865Z,7.40
2023-02-17T07:04:42.946Z,7.40
2023-02-17T07:07:11.823Z,7.40
2023-02-17T07:09:40.529Z,7.50
2023-02-17T07:12:08.820Z,7.50
2023-02-17T07:14:36.964Z,7.50
2023-02-17T07:17:04.791Z,7.50
2023-02-17T07:19:35.324Z,7.50
2023-02-17T07:22:04.547Z,7.50
2023-02-17T07:24:33.856Z,7.50
2023-02-17T07:27:01.764Z,7.50
2023-02-17T07:29:29.595Z,7.50
2023-02-17T07:31:57.945Z,7.60
2023-02-17T07:34:25.972Z,7.70
2023-02-17T07:36:53.891Z,7.80
2023-02-17T07:39:23.186Z,7.80
2023-02-17T07:41:51.217Z,7.80
2023-02-17T07:44:19.219Z,7.80
2023-02-17T07:46:47.022Z,7.80
2023-02-17T07:49:14.912Z,7.80
2023-02-17T07:51:42.689Z,7.90
2023-02-17T07:54:10.475Z,7.80
2023-02-17T07:56:39.699Z,7.90
2023-02-17T07:59:09.730Z,7.80
2023-02-17T08:01:37.653Z,7.90
2023-02-17T08:04:05.998Z,7.80
2023-02-17T08:06:34.302Z,7.90
2023-02-17T08:09:19.857Z,7.90
2023-02-17T08:12:06.338Z,8.00
2023-02-17T08:14:34.212Z,7.90
2023-02-17T08:17:02.266Z,8.00
2023-02-17T08:19:46.498Z,8.00
2023-02-17T08:22:15.652Z,8.10
2023-02-17T08:24:43.499Z,8.20
2023-02-17T08:27:13.280Z,8.30
2023-02-17T08:29:41.287Z,8.10
2023-02-17T08:32:09.649Z,7.90
2023-02-17T08:34:37.517Z,7.90
2023-02-17T08:37:07.112Z,8.00
2023-02-17T08:39:36.028Z,8.00
2023-02-17T08:42:05.006Z,8.10
2023-02-17T08:44:36.306Z,8.00
2023-02-17T08:47:06.099Z,8.00
2023-02-17T08:49:34.778Z,8.00
2023-02-17T08:52:02.660Z,8.20
2023-02-17T08:54:30.574Z,8.20
2023-02-17T08:56:58.752Z,8.20
2023-02-17T08:59:28.516Z,8.10
2023-02-17T09:01:59.982Z,8.00
2023-02-17T09:04:28.217Z,8.00
2023-02-17T09:06:58.271Z,8.00
2023-02-17T09:09:27.711Z,8.10
2023-02-17T09:11:56.775Z,8.10
2023-02-17T09:14:24.932Z,8.20
2023-02-17T09:16:53.142Z,8.20
2023-02-17T09:19:23.265Z,8.20
2023-02-17T09:21:51.158Z,8.30
2023-02-17T09:24:19.359Z,8.30
2023-02-17T09:26:47.204Z,8.30
2023-02-17T09:29:15.004Z,8.60
2023-02-17T09:31:43.094Z,8.50
2023-02-17T09:34:10.924Z,8.60
2023-02-17T09:36:42.428Z,8.60
2023-02-17T09:39:13.431Z,8.60
2023-02-17T09:41:44.771Z,8.50
2023-02-17T09:44:21.665Z,8.60
2023-02-17T09:47:01.861Z,8.60
2023-02-17T09:49:35.984Z,8.70
2023-02-17T09:52:12.112Z,8.70
2023-02-17T09:54:48.440Z,8.80
2023-02-17T09:57:20.654Z,8.80
2023-02-17T09:59:51.631Z,9.00
2023-02-17T10:02:26.884Z,9.10
2023-02-17T10:04:58.322Z,9.10
2023-02-17T10:07:33.700Z,9.30
2023-02-17T10:10:08.245Z,9.60
2023-02-17T10:12:41.662Z,9.90
2023-02-17T10:15:15.647Z,9.80
2023-02-17T10:17:49.371Z,9.70
2023-02-17T10:20:20.721Z,9.60
2023-02-17T10:22:55.722Z,9.60
2023-02-17T10:25:34.674Z,9.50
2023-02-17T10:28:09.328Z,9.70
2023-02-17T10:30:42.896Z,9.70
2023-02-17T10:33:16.786Z,9.80
2023-02-17T10:35:53.109Z,9.80
2023-02-17T10:38:38.843Z,10.00
2023-02-17T10:41:10.872Z,10.20
2023-02-17T10:43:38.740Z,10.40
2023-02-17T10:46:08.973Z,10.40
2023-02-17T10:48:41.552Z,10.70
2023-02-17T10:55:22.349Z,11.20
2023-02-17T10:57:56.264Z,11.30
2023-02-17T11:00:24.470Z,11.10
2023-02-17T11:02:52.607Z,10.70
2023-02-17T11:05:26.730Z,10.50
2023-02-17T11:08:01.256Z,10.40
2023-02-17T11:10:32.567Z,10.40
2023-02-17T11:13:02.602Z,10.60
2023-02-17T11:15:35.390Z,10.80
2023-02-17T11:18:11.246Z,11.10
2023-02-17T11:20:39.712Z,10.80
2023-02-17T11:23:22.728Z,11.00
2023-02-17T11:26:08.994Z,11.10
2023-02-17T11:28:37.100Z,11.00
2023-02-17T11:31:07.183Z,11.10
2023-02-17T11:33:37.453Z,11.20
2023-02-17T11:36:07.046Z,11.40
2023-02-17T11:38:44.700Z,11.40
2023-02-17T11:41:14.421Z,11.10
2023-02-17T11:43:53.247Z,11.10
2023-02-17T11:46:30.661Z,11.10
2023-02-17T11:49:35.337Z,10.90
2023-02-17T11:52:17.515Z,11.00
2023-02-17T11:55:01.896Z,10.90
2023-02-17T11:57:39.321Z,11.10
2023-02-17T12:00:17.577Z,11.00
2023-02-17T12:03:18.897Z,11.00
2023-02-17T12:05:56.110Z,11.10
2023-02-17T12:08:31.734Z,11.30
2023-02-17T12:11:10.736Z,11.70
2023-02-17T12:13:52.082Z,11.90
2023-02-17T12:16:30.217Z,11.80
2023-02-17T12:19:05.584Z,11.30
2023-02-17T12:21:48.441Z,11.10
2023-02-17T12:24:34.402Z,11.10
2023-02-17T12:27:11.136Z,11.20
2023-02-17T12:29:58.336Z,11.10
2023-02-17T12:32:45.220Z,10.90
2023-02-17T12:35:19.560Z,11.30
2023-02-17T12:37:51.732Z,11.00
2023-02-17T12:40:32.143Z,11.00
2023-02-17T12:43:06.974Z,11.10
2023-02-17T12:45:40.460Z,11.10
2023-02-17T12:48:16.280Z,11.10
2023-02-17T12:50:53.695Z,11.00
2023-02-17T12:53:29.842Z,11.10
2023-02-17T12:56:00.851Z,11.20
2023-02-17T12:58:30.328Z,11.00
2023-02-17T13:01:07.360Z,11.10
2023-02-17T13:03:36.982Z,11.20
2023-02-17T13:06:15.886Z,11.20
2023-02-17T13:08:47.814Z,11.20
2023-02-17T13:11:28.662Z,11.20
2023-02-17T13:13:56.715Z,12.10
2023-02-17T13:16:25.844Z,12.20
2023-02-17T13:18:53.751Z,12.20
2023-02-17T13:21:33.247Z,12.10
2023-02-17T13:24:03.409Z,12.00
2023-02-17T13:26:33.560Z,12.00
2023-02-17T13:29:33.409Z,12.00
2023-02-17T13:32:06.013Z,11.90
2023-02-17T13:34:35.844Z,12.00
2023-02-17T13:37:16.652Z,11.90
2023-02-17T13:39:44.653Z,11.90
2023-02-17T13:42:36.231Z,11.90
2023-02-17T13:45:14.623Z,11.90
2023-02-17T13:47:44.822Z,11.90
2023-02-17T13:50:29.727Z,11.70
2023-02-17T13:52:57.827Z,11.80
2023-02-17T13:55:25.800Z,11.90
2023-02-17T13:57:55.015Z,11.90
2023-02-17T14:00:25.987Z,11.90
2023-02-17T14:02:57.848Z,11.90
2023-02-17T14:05:29.084Z,11.80
2023-02-17T14:08:00.919Z,11.80
2023-02-17T14:10:29.189Z,11.80
2023-02-17T14:12:57.582Z,11.80
2023-02-17T14:15:27.524Z,11.80
2023-02-17T14:17:57.408Z,11.80
2023-02-17T14:20:28.053Z,11.80
2023-02-17T14:23:07.422Z,11.80
2023-02-17T14:25:37.437Z,11.80
2023-02-17T14:28:06.186Z,11.80
2023-02-17T14:30:36.711Z,11.80
2023-02-17T14:33:19.732Z,11.80
2023-02-17T14:35:53.452Z,11.80
2023-02-17T14:38:23.719Z,11.80
2023-02-17T14:40:53.212Z,11.80
2023-02-17T14:43:21.019Z,11.70
2023-02-17T14:45:49.052Z,11.80
2023-02-17T14:48:18.452Z,11.70
2023-02-17T14:50:46.459Z,11.70
2023-02-17T14:53:18.384Z,11.70
2023-02-17T14:55:50.515Z,11.60
2023-02-17T14:58:21.393Z,11.70
2023-02-17T15:00:49.819Z,11.70
2023-02-17T15:03:19.025Z,11.60
2023-02-17T15:05:47.058Z,11.70
2023-02-17T15:08:17.215Z,11.60
2023-02-17T15:10:45.279Z,11.60
2023-02-17T15:13:15.987Z,11.70
2023-02-17T15:15:47.340Z,11.70
2023-02-17T15:18:16.549Z,11.60
2023-02-17T15:20:47.439Z,11.60
2023-02-17T15:23:17.008Z,11.60
2023-02-17T15:25:45.611Z,11.60
2023-02-17T15:28:14.495Z,11.60
2023-02-17T15:30:42.690Z,11.50
2023-02-17T15:33:13.249Z,11.60
2023-02-17T15:35:41.850Z,11.60
2023-02-17T15:38:13.254Z,11.60
2023-02-17T15:40:42.058Z,11.60
2023-02-17T15:43:14.250Z,11.60
2023-02-17T15:45:42.062Z,11.60
2023-02-17T15:48:15.064Z,11.50
2023-02-17T15:50:42.873Z,11.50
2023-02-17T15:53:12.916Z,11.50
2023-02-17T15:55:41.182Z,11.50
2023-02-17T15:58:16.621Z,11.50
2023-02-17T16:00:46.352Z,11.50
2023-02-17T16:03:15.336Z,11.50
2023-02-17T16:05:43.587Z,11.40
2023-02-17T16:08:12.840Z,11.50
2023-02-17T16:10:42.406Z,11.40
2023-02-17T16:13:15.392Z,11.40
2023-02-17T16:15:43.935Z,11.40
2023-02-17T16:18:20.187Z,11.40
2023-02-17T16:20:48.162Z,11.30
2023-02-17T16:23:17.431Z,11.30
2023-02-17T16:25:47.120Z,11.30
2023-02-17T16:28:17.647Z,11.30
2023-02-17T16:30:46.339Z,11.30
2023-02-17T16:33:14.855Z,11.20
2023-02-17T16:35:43.417Z,11.20
2023-02-17T16:38:17.364Z,11.10
2023-02-17T16:40:48.820Z,11.10
2023-02-17T16:43:18.152Z,11.10
2023-02-17T16:45:52.868Z,11.10
2023-02-17T16:48:21.941Z,11.00
2023-02-17T16:50:49.935Z,11.00
2023-02-17T16:53:17.772Z,11.00
2023-02-17T16:55:47.446Z,11.00
2023-02-17T16:58:17.435Z,10.90
2023-02-17T17:00:46.209Z,10.90
2023-02-17T17:03:14.094Z,10.90
2023-02-17T17:05:42.805Z,10.90
2023-02-17T17:08:14.182Z,10.90
2023-02-17T17:10:42.049Z,10.90
2023-02-17T17:13:11.589Z,10.80
2023-02-17T17:15:42.081Z,10.80
2023-02-17T17:18:11.190Z,10.80
2023-02-17T17:20:41.795Z,10.80
2023-02-17T17:23:13.540Z,10.80
2023-02-17T17:25:44.995Z,10.70
2023-02-17T17:28:16.884Z,10.70
2023-02-17T17:30:45.433Z,10.70
2023-02-17T17:33:13.305Z,10.70
2023-02-17T17:35:41.206Z,10.60
2023-02-17T17:38:10.633Z,10.60
2023-02-17T17:40:48.354Z,10.60
2023-02-17T17:43:18.684Z,10.60
2023-02-17T17:45:46.784Z,10.60
2023-02-17T17:48:15.905Z,10.50
2023-02-17T17:50:44.216Z,10.50
2023-02-17T17:53:12.224Z,10.50
2023-02-17T17:55:40.014Z,10.50
2023-02-17T17:58:08.095Z,10.50
2023-02-17T18:00:37.215Z,10.40
2023-02-17T18:03:05.121Z,10.40
2023-02-17T18:05:32.943Z,10.40
2023-02-17T18:08:02.014Z,10.40
2023-02-17T18:10:30.015Z,10.40
2023-02-17T18:12:57.884Z,10.40
2023-02-17T18:15:26.222Z,10.30
2023-02-17T18:17:55.424Z,10.30
2023-02-17T18:20:23.387Z,10.30
2023-02-17T18:22:52.028Z,10.30
2023-02-17T18:25:19.858Z,10.30
2023-02-17T18:27:48.744Z,10.30
2023-02-17T18:30:19.406Z,10.30
2023-02-17T18:32:47.860Z,10.20
2023-02-17T18:35:17.766Z,10.20
2023-02-17T18:37:46.170Z,10.20
2023-02-17T18:40:16.587Z,10.20
2023-02-17T18:42:45.496Z,10.20
2023-02-17T18:45:14.452Z,10.10
2023-02-17T18:47:42.813Z,10.10
2023-02-17T18:50:12.224Z,10.10
2023-02-17T18:52:43.056Z,10.10
2023-02-17T18:55:12.339Z,10.10
2023-02-17T18:57:40.108Z,10.10
2023-02-17T19:00:10.693Z,10.10
2023-02-17T19:02:39.061Z,10.10
2023-02-17T19:05:08.331Z,10.10
2023-02-17T19:07:36.332Z,10.10
2023-02-17T19:10:06.254Z,10.10
2023-02-17T19:12:34.466Z,10.00
2023-02-17T19:15:02.260Z,10.00
2023-02-17T19:17:30.038Z,10.10
2023-02-17T19:19:57.972Z,10.00
2023-02-17T19:22:25.809Z,10.00
2023-02-17T19:24:56.755Z,10.00
2023-02-17T19:27:25.923Z,10.00
2023-02-17T19:29:53.692Z,10.00
2023-02-17T19:32:21.788Z,10.00
2023-02-17T19:34:50.113Z,10.00
2023-02-17T19:37:17.905Z,10.00
2023-02-17T19:39:45.867Z,10.00
2023-02-17T19:42:13.658Z,10.00
2023-02-17T19:44:42.840Z,9.90
2023-02-17T19:47:10.662Z,9.90
2023-02-17T19:49:38.479Z,10.00
2023-02-17T19:52:07.368Z,10.00
2023-02-17T19:54:35.303Z,9.90
2023-02-17T19:57:03.521Z,9.90
2023-02-17T19:59:34.004Z,9.90
2023-02-17T20:02:03.196Z,10.00
2023-02-17T20:04:31.236Z,10.00
2023-02-17T20:06:59.000Z,10.00
2023-02-17T20:09:26.780Z,10.00
2023-02-17T20:11:54.556Z,10.00
2023-02-17T20:14:22.724Z,10.00
2023-02-17T20:16:53.053Z,10.00
2023-02-17T20:19:22.441Z,9.90
2023-02-17T20:21:50.271Z,9.80
2023-02-17T20:24:18.132Z,9.90
2023-02-17T20:26:48.098Z,9.80
2023-02-17T20:29:16.179Z,9.80
2023-02-17T20:31:44.945Z,9.80
2023-02-17T20:34:26.874Z,9.90
2023-02-17T20:36:54.878Z,9.90
2023-02-17T20:39:23.058Z,10.00
2023-02-17T20:41:50.836Z,9.90
2023-02-17T20:44:18.683Z,10.00
2023-02-17T20:46:47.090Z,10.00
2023-02-17T20:49:15.888Z,10.00
2023-02-17T20:51:45.091Z,10.00
2023-02-17T20:54:13.205Z,10.00
2023-02-17T20:56:43.225Z,9.90
2023-02-17T20:59:13.819Z,10.00
2023-02-17T21:01:42.060Z,10.00
2023-02-17T21:04:10.032Z,10.00
2023-02-17T21:06:41.079Z,10.00
2023-02-17T21:09:14.619Z,10.00
2023-02-17T21:11:42.937Z,10.00
2023-02-17T21:14:10.814Z,10.00
2023-02-17T21:16:39.355Z,10.00
2023-02-17T21:19:07.226Z,10.10
2023-02-17T21:21:35.471Z,10.00
2023-02-17T21:24:03.301Z,10.00
2023-02-17T21:26:33.868Z,10.00
2023-02-17T21:29:01.657Z,10.00
2023-02-17T21:31:29.859Z,10.00
2023-02-17T21:33:59.838Z,10.10
2023-02-17T21:36:29.357Z,10.10
2023-02-17T21:38:57.518Z,10.10
2023-02-17T21:41:27.494Z,10.10
2023-02-17T21:44:14.137Z,10.00
2023-02-17T21:46:43.239Z,10.10
2023-02-17T21:49:11.943Z,10.00
2023-02-17T21:51:40.434Z,10.10
2023-02-17T21:54:11.097Z,10.10
2023-02-17T21:56:39.473Z,10.00
2023-02-17T21:59:09.283Z,10.00
2023-02-17T22:01:37.315Z,10.00
2023-02-17T22:04:05.576Z,10.00
2023-02-17T22:06:35.360Z,10.00
2023-02-17T22:09:04.535Z,10.10
2023-02-17T22:11:34.562Z,10.00
2023-02-17T22:14:07.480Z,10.00
2023-02-17T22:16:37.361Z,10.00
2023-02-17T22:19:06.586Z,10.10
2023-02-17T22:21:34.925Z,10.10
2023-02-17T22:24:03.262Z,10.00
2023-02-17T22:26:31.594Z,10.10
2023-02-17T22:28:59.885Z,10.10
2023-02-17T22:31:29.977Z,10.10
2023-02-17T22:34:01.764Z,10.10
2023-02-17T22:36:32.612Z,10.10
2023-02-17T22:39:01.369Z,10.00
2023-02-17T22:41:29.407Z,10.00
2023-02-17T22:43:57.410Z,10.00
2023-02-17T22:46:27.199Z,10.00
2023-02-17T22:48:56.487Z,10.10
2023-02-17T22:51:27.242Z,10.00
2023-02-17T22:53:55.210Z,10.00
2023-02-17T22:56:25.989Z,10.10
2023-02-17T23:01:31.121Z,9.90
2023-02-17T23:03:58.952Z,10.00
2023-02-17T23:06:30.444Z,9.90
2023-02-17T23:08:58.893Z,10.00
2023-02-17T23:11:46.281Z,9.90
2023-02-17T23:14:15.143Z,9.90
2023-02-17T23:16:43.391Z,9.80
2023-02-17T23:19:13.213Z,9.80
2023-02-17T23:21:45.193Z,9.80
2023-02-17T23:24:13.567Z,9.80
2023-02-17T23:26:41.705Z,9.80
2023-02-17T23:29:11.098Z,9.80
2023-02-17T23:31:39.408Z,9.70
2023-02-17T23:34:08.356Z,9.80
2023-02-17T23:36:38.845Z,9.80
2023-02-17T23:39:08.076Z,9.70
2023-02-17T23:41:37.022Z,9.70
2023-02-17T23:44:06.167Z,9.70
2023-02-17T23:46:33.998Z,9.70
2023-02-17T23:49:01.918Z,9.70
2023-02-17T23:51:29.722Z,9.70
2023-02-17T23:53:57.506Z,9.70
2023-02-17T23:56:28.039Z,9.60
2023-02-17T23:58:56.055Z,9.70
